sensor_id;sensor_type;location;lat;lon;timestamp;pressure;altitude;pressure_sealevel;temperature;humidity
6952;BME280;3515;50.138;8.502;2022-07-22T00:00:06;102160;;;18.5;76.9
6952;BME280;3515;50.138;8.502;2022-07-22T00:02:29;102140;;;18.5;76.9
6952;BME280;3515;50.138;8.502;2022-07-22T00:04:55;102150;;;18.5;76.4
6952;BME280;3515;50.138;8.502;2022-07-22T00:07:20;102160;;;18.5;76.4
6952;BME280;3515;50.138;8.502;2022-07-22T00:09:45;102160;;;18.5;76.4
6952;BME280;3515;50.138;8.502;2022-07-22T00:12:10;102150;;;18.5;76.4
6952;BME280;3515;50.138;8.502;2022-07-22T00:14:36;102140;;;18.5;75.9
6952;BME280;3515;50.138;8.502;2022-07-22T00:17:01;102140;;;18.5;75.9
6952;BME280;3515;50.138;8.502;2022-07-22T00:19:26;102130;;;18.5;75.9
6952;BME280;3515;50.138;8.502;2022-07-22T00:21:52;102150;;;18.5;76.4
6952;BME280;3515;50.138;8.502;2022-07-22T00:24:17;102160;;;18.5;76.4
6952;BME280;3515;50.138;8.502;2022-07-22T00:26:42;102150;;;18.5;76.4
6952;BME280;3515;50.138;8.502;2022-07-22T00:29:07;102150;;;18.5;76.4
6952;BME280;3515;50.138;8.502;2022-07-22T00:31:33;102130;;;18.4;76.9
6952;BME280;3515;50.138;8.502;2022-07-22T00:33:59;102140;;;18.4;76.9
6952;BME280;3515;50.138;8.502;2022-07-22T00:36:23;102120;;;18.3;77.4
6952;BME280;3515;50.138;8.502;2022-07-22T00:38:48;102110;;;18.3;77.4
6952;BME280;3515;50.138;8.502;2022-07-22T00:41:14;102130;;;18.3;77.4
6952;BME280;3515;50.138;8.502;2022-07-22T00:46:04;102120;;;18.2;77.4
6952;BME280;3515;50.138;8.502;2022-07-22T00:48:29;102110;;;18.2;77.4
6952;BME280;3515;50.138;8.502;2022-07-22T00:50:54;102120;;;18.2;77.4
6952;BME280;3515;50.138;8.502;2022-07-22T00:53:20;102130;;;18.2;77.9
6952;BME280;3515;50.138;8.502;2022-07-22T00:55:45;102110;;;18.2;77.9
6952;BME280;3515;50.138;8.502;2022-07-22T00:58:10;102110;;;18.1;77.9
6952;BME280;3515;50.138;8.502;2022-07-22T01:00:35;102110;;;18.1;77.9
6952;BME280;3515;50.138;8.502;2022-07-22T01:03:01;102110;;;18.1;77.9
6952;BME280;3515;50.138;8.502;2022-07-22T01:05:26;102130;;;18.1;78.4
6952;BME280;3515;50.138;8.502;2022-07-22T01:07:51;102120;;;18.0;78.4
6952;BME280;3515;50.138;8.502;2022-07-22T01:10:16;102120;;;18.0;78.4
6952;BME280;3515;50.138;8.502;2022-07-22T01:12:42;102120;;;17.9;78.4
6952;BME280;3515;50.138;8.502;2022-07-22T01:15:08;102120;;;17.9;78.4
6952;BME280;3515;50.138;8.502;2022-07-22T01:17:32;102090;;;17.9;78.4
6952;BME280;3515;50.138;8.502;2022-07-22T01:19:59;102120;;;18.0;77.4
6952;BME280;3515;50.138;8.502;2022-07-22T01:22:23;102110;;;18.0;77.4
6952;BME280;3515;50.138;8.502;2022-07-22T01:24:48;102150;;;18.0;77.4
6952;BME280;3515;50.138;8.502;2022-07-22T01:27:13;102120;;;18.0;77.4
6952;BME280;3515;50.138;8.502;2022-07-22T01:29:38;102120;;;18.0;77.9
6952;BME280;3515;50.138;8.502;2022-07-22T01:32:04;102140;;;18.0;77.9
6952;BME280;3515;50.138;8.502;2022-07-22T01:34:29;102110;;;18.0;77.9
6952;BME280;3515;50.138;8.502;2022-07-22T01:36:54;102120;;;18.0;78.4
6952;BME280;3515;50.138;8.502;2022-07-22T01:39:19;102110;;;17.9;78.4
6952;BME280;3515;50.138;8.502;2022-07-22T01:41:51;102130;;;17.9;78.4
6952;BME280;3515;50.138;8.502;2022-07-22T01:44:15;102120;;;17.8;78.4
6952;BME280;3515;50.138;8.502;2022-07-22T01:46:40;102130;;;17.8;78.4
6952;BME280;3515;50.138;8.502;2022-07-22T01:49:05;102140;;;17.8;78.9
6952;BME280;3515;50.138;8.502;2022-07-22T01:51:30;102120;;;17.8;78.9
6952;BME280;3515;50.138;8.502;2022-07-22T01:53:56;102130;;;17.7;78.9
6952;BME280;3515;50.138;8.502;2022-07-22T01:56:21;102130;;;17.6;78.9
6952;BME280;3515;50.138;8.502;2022-07-22T01:58:46;102140;;;17.6;78.9
6952;BME280;3515;50.138;8.502;2022-07-22T02:01:12;102120;;;17.7;78.9
6952;BME280;3515;50.138;8.502;2022-07-22T02:03:37;102130;;;17.6;78.9
6952;BME280;3515;50.138;8.502;2022-07-22T02:06:03;102120;;;17.6;78.9
6952;BME280;3515;50.138;8.502;2022-07-22T02:08:27;102130;;;17.6;78.9
6952;BME280;3515;50.138;8.502;2022-07-22T02:10:53;102130;;;17.6;78.9
6952;BME280;3515;50.138;8.502;2022-07-22T02:13:18;102120;;;17.6;78.9
6952;BME280;3515;50.138;8.502;2022-07-22T02:15:43;102120;;;17.6;79.9
6952;BME280;3515;50.138;8.502;2022-07-22T02:18:10;102110;;;17.6;79.9
6952;BME280;3515;50.138;8.502;2022-07-22T02:20:34;102130;;;17.6;79.9
6952;BME280;3515;50.138;8.502;2022-07-22T02:22:59;102110;;;17.6;79.4
6952;BME280;3515;50.138;8.502;2022-07-22T02:25:24;102110;;;17.6;78.9
6952;BME280;3515;50.138;8.502;2022-07-22T02:27:49;102120;;;17.5;78.9
6952;BME280;3515;50.138;8.502;2022-07-22T02:30:15;102110;;;17.5;79.4
6952;BME280;3515;50.138;8.502;2022-07-22T02:32:40;102120;;;17.4;79.4
6952;BME280;3515;50.138;8.502;2022-07-22T02:35:06;102120;;;17.4;78.9
6952;BME280;3515;50.138;8.502;2022-07-22T02:37:31;102120;;;17.4;78.9
6952;BME280;3515;50.138;8.502;2022-07-22T02:39:56;102110;;;17.4;79.4
6952;BME280;3515;50.138;8.502;2022-07-22T02:42:21;102090;;;17.4;79.4
6952;BME280;3515;50.138;8.502;2022-07-22T02:44:46;102120;;;17.4;78.9
6952;BME280;3515;50.138;8.502;2022-07-22T02:47:12;102120;;;17.4;78.9
6952;BME280;3515;50.138;8.502;2022-07-22T02:49:37;102130;;;17.4;79.4
6952;BME280;3515;50.138;8.502;2022-07-22T02:52:02;102150;;;17.3;79.9
6952;BME280;3515;50.138;8.502;2022-07-22T02:54:27;102110;;;17.2;79.9
6952;BME280;3515;50.138;8.502;2022-07-22T02:56:53;102130;;;17.2;80.4
6952;BME280;3515;50.138;8.502;2022-07-22T02:59:18;102110;;;17.1;80.4
6952;BME280;3515;50.138;8.502;2022-07-22T03:01:43;102130;;;17.1;80.4
6952;BME280;3515;50.138;8.502;2022-07-22T03:04:08;102130;;;17.1;80.4
6952;BME280;3515;50.138;8.502;2022-07-22T03:06:34;102160;;;16.9;80.8
6952;BME280;3515;50.138;8.502;2022-07-22T03:08:59;102160;;;16.9;80.8
6952;BME280;3515;50.138;8.502;2022-07-22T03:11:24;102110;;;16.9;80.8
6952;BME280;3515;50.138;8.502;2022-07-22T03:13:50;102130;;;16.9;80.8
6952;BME280;3515;50.138;8.502;2022-07-22T03:16:15;102150;;;16.9;80.8
6952;BME280;3515;50.138;8.502;2022-07-22T03:18:40;102150;;;16.8;81.3
6952;BME280;3515;50.138;8.502;2022-07-22T03:21:05;102160;;;16.8;81.3
6952;BME280;3515;50.138;8.502;2022-07-22T03:23:31;102150;;;16.8;81.4
6952;BME280;3515;50.138;8.502;2022-07-22T03:25:56;102150;;;16.8;81.8
6952;BME280;3515;50.138;8.502;2022-07-22T03:28:21;102140;;;16.7;81.8
6952;BME280;3515;50.138;8.502;2022-07-22T03:30:46;102140;;;16.8;81.4
6952;BME280;3515;50.138;8.502;2022-07-22T03:33:12;102160;;;16.8;81.4
6952;BME280;3515;50.138;8.502;2022-07-22T03:35:37;102150;;;16.7;81.8
6952;BME280;3515;50.138;8.502;2022-07-22T03:38:02;102150;;;16.6;81.8
6952;BME280;3515;50.138;8.502;2022-07-22T03:40:27;102130;;;16.6;81.9
6952;BME280;3515;50.138;8.502;2022-07-22T03:42:53;102150;;;16.6;81.9
6952;BME280;3515;50.138;8.502;2022-07-22T03:45:18;102150;;;16.6;81.9
6952;BME280;3515;50.138;8.502;2022-07-22T03:47:43;102150;;;16.6;81.9
6952;BME280;3515;50.138;8.502;2022-07-22T03:50:09;102170;;;16.6;81.9
6952;BME280;3515;50.138;8.502;2022-07-22T03:52:34;102140;;;16.6;81.9
6952;BME280;3515;50.138;8.502;2022-07-22T03:54:59;102140;;;16.6;82.4
6952;BME280;3515;50.138;8.502;2022-07-22T03:57:24;102140;;;16.6;82.4
6952;BME280;3515;50.138;8.502;2022-07-22T03:59:50;102140;;;16.6;82.4
6952;BME280;3515;50.138;8.502;2022-07-22T04:02:15;102160;;;16.7;81.9
6952;BME280;3515;50.138;8.502;2022-07-22T04:04:40;102140;;;16.7;81.9
6952;BME280;3515;50.138;8.502;2022-07-22T04:07:05;102130;;;16.7;81.9
6952;BME280;3515;50.138;8.502;2022-07-22T04:09:31;102130;;;16.7;81.9
6952;BME280;3515;50.138;8.502;2022-07-22T04:11:56;102150;;;16.7;81.9
6952;BME280;3515;50.138;8.502;2022-07-22T04:14:21;102140;;;16.7;81.9
6952;BME280;3515;50.138;8.502;2022-07-22T04:16:47;102150;;;16.7;81.9
6952;BME280;3515;50.138;8.502;2022-07-22T04:19:12;102160;;;16.7;81.9
6952;BME280;3515;50.138;8.502;2022-07-22T04:21:37;102120;;;16.7;82.4
6952;BME280;3515;50.138;8.502;2022-07-22T04:24:03;102130;;;16.7;81.9
6952;BME280;3515;50.138;8.502;2022-07-22T04:26:28;102130;;;16.7;82.4
6952;BME280;3515;50.138;8.502;2022-07-22T04:28:53;102140;;;16.7;81.9
6952;BME280;3515;50.138;8.502;2022-07-22T04:31:18;102140;;;16.8;81.9
6952;BME280;3515;50.138;8.502;2022-07-22T04:33:43;102130;;;16.8;81.9
6952;BME280;3515;50.138;8.502;2022-07-22T04:36:09;102130;;;16.9;81.9
6952;BME280;3515;50.138;8.502;2022-07-22T04:38:34;102150;;;16.9;81.4
6952;BME280;3515;50.138;8.502;2022-07-22T04:40:59;102120;;;17.0;81.5
6952;BME280;3515;50.138;8.502;2022-07-22T04:43:24;102110;;;17.0;81.4
6952;BME280;3515;50.138;8.502;2022-07-22T04:45:50;102130;;;17.0;81.5
6952;BME280;3515;50.138;8.502;2022-07-22T04:48:15;102110;;;17.0;81.5
6952;BME280;3515;50.138;8.502;2022-07-22T04:50:40;102120;;;17.1;81.5
6952;BME280;3515;50.138;8.502;2022-07-22T04:53:05;102110;;;17.1;81.0
6952;BME280;3515;50.138;8.502;2022-07-22T04:55:31;102110;;;17.1;81.0
6952;BME280;3515;50.138;8.502;2022-07-22T04:57:56;102120;;;17.2;81.0
6952;BME280;3515;50.138;8.502;2022-07-22T05:00:21;102120;;;17.3;81.0
6952;BME280;3515;50.138;8.502;2022-07-22T05:02:53;102120;;;17.4;80.5
6952;BME280;3515;50.138;8.502;2022-07-22T05:05:17;102130;;;17.4;80.5
6952;BME280;3515;50.138;8.502;2022-07-22T05:07:42;102110;;;17.5;80.5
6952;BME280;3515;50.138;8.502;2022-07-22T05:10:08;102120;;;17.5;80.0
6952;BME280;3515;50.138;8.502;2022-07-22T05:12:33;102100;;;17.6;80.0
6952;BME280;3515;50.138;8.502;2022-07-22T05:14:58;102130;;;17.6;80.0
6952;BME280;3515;50.138;8.502;2022-07-22T05:17:23;102120;;;17.6;80.0
6952;BME280;3515;50.138;8.502;2022-07-22T05:19:48;102130;;;17.6;80.0
6952;BME280;3515;50.138;8.502;2022-07-22T05:22:13;102150;;;17.6;80.0
6952;BME280;3515;50.138;8.502;2022-07-22T05:24:39;102140;;;17.7;80.0
6952;BME280;3515;50.138;8.502;2022-07-22T05:27:04;102130;;;17.8;79.5
6952;BME280;3515;50.138;8.502;2022-07-22T05:29:29;102120;;;17.9;79.5
6952;BME280;3515;50.138;8.502;2022-07-22T05:31:55;102150;;;18.0;79.5
6952;BME280;3515;50.138;8.502;2022-07-22T05:34:21;102140;;;18.1;79.0
6952;BME280;3515;50.138;8.502;2022-07-22T05:36:46;102140;;;18.1;79.0
6952;BME280;3515;50.138;8.502;2022-07-22T05:39:12;102120;;;18.2;79.0
6952;BME280;3515;50.138;8.502;2022-07-22T05:41:37;102140;;;18.2;78.5
6952;BME280;3515;50.138;8.502;2022-07-22T05:44:02;102160;;;18.3;79.0
6952;BME280;3515;50.138;8.502;2022-07-22T05:46:27;102120;;;18.4;79.0
6952;BME280;3515;50.138;8.502;2022-07-22T05:48:53;102140;;;18.4;78.0
6952;BME280;3515;50.138;8.502;2022-07-22T05:51:18;102140;;;18.4;77.5
6952;BME280;3515;50.138;8.502;2022-07-22T05:53:43;102150;;;18.6;78.0
6952;BME280;3515;50.138;8.502;2022-07-22T05:56:09;102140;;;18.9;76.5
6952;BME280;3515;50.138;8.502;2022-07-22T05:58:34;102130;;;19.0;75.5
6952;BME280;3515;50.138;8.502;2022-07-22T06:00:59;102150;;;19.2;75.5
6952;BME280;3515;50.138;8.502;2022-07-22T06:03:24;102130;;;19.3;74.5
6952;BME280;3515;50.138;8.502;2022-07-22T06:05:50;102140;;;19.1;74.5
6952;BME280;3515;50.138;8.502;2022-07-22T06:08:15;102140;;;19.2;74.5
6952;BME280;3515;50.138;8.502;2022-07-22T06:10:40;102120;;;19.5;74.0
6952;BME280;3515;50.138;8.502;2022-07-22T06:13:06;102120;;;19.6;73.5
6952;BME280;3515;50.138;8.502;2022-07-22T06:15:31;102130;;;19.8;73.0
6952;BME280;3515;50.138;8.502;2022-07-22T06:17:56;102130;;;19.9;72.5
6952;BME280;3515;50.138;8.502;2022-07-22T06:20:22;102130;;;19.8;72.5
6952;BME280;3515;50.138;8.502;2022-07-22T06:22:47;102120;;;19.9;72.0
6952;BME280;3515;50.138;8.502;2022-07-22T06:25:12;102110;;;20.0;71.5
6952;BME280;3515;50.138;8.502;2022-07-22T06:27:37;102100;;;20.1;71.5
6952;BME280;3515;50.138;8.502;2022-07-22T06:30:03;102140;;;19.8;72.5
6952;BME280;3515;50.138;8.502;2022-07-22T06:32:28;102130;;;19.8;72.5
6952;BME280;3515;50.138;8.502;2022-07-22T06:34:53;102120;;;19.8;72.0
6952;BME280;3515;50.138;8.502;2022-07-22T06:37:18;102130;;;19.8;71.5
6952;BME280;3515;50.138;8.502;2022-07-22T06:39:44;102100;;;19.8;71.5
6952;BME280;3515;50.138;8.502;2022-07-22T06:42:09;102100;;;19.9;71.5
6952;BME280;3515;50.138;8.502;2022-07-22T06:44:34;102110;;;19.9;71.5
6952;BME280;3515;50.138;8.502;2022-07-22T06:46:59;102110;;;19.9;71.5
6952;BME280;3515;50.138;8.502;2022-07-22T06:49:25;102110;;;20.0;71.0
6952;BME280;3515;50.138;8.502;2022-07-22T06:51:50;102110;;;20.1;70.0
6952;BME280;3515;50.138;8.502;2022-07-22T06:54:15;102120;;;20.4;69.5
6952;BME280;3515;50.138;8.502;2022-07-22T06:56:40;102130;;;20.6;68.5
6952;BME280;3515;50.138;8.502;2022-07-22T06:59:06;102140;;;20.5;70.0
6952;BME280;3515;50.138;8.502;2022-07-22T07:01:31;102120;;;20.4;70.5
6952;BME280;3515;50.138;8.502;2022-07-22T07:03:56;102130;;;20.4;69.5
6952;BME280;3515;50.138;8.502;2022-07-22T07:06:21;102120;;;20.4;70.0
6952;BME280;3515;50.138;8.502;2022-07-22T07:08:47;102130;;;20.5;69.5
6952;BME280;3515;50.138;8.502;2022-07-22T07:11:12;102110;;;20.6;69.0
6952;BME280;3515;50.138;8.502;2022-07-22T07:13:37;102110;;;20.9;68.5
6952;BME280;3515;50.138;8.502;2022-07-22T07:16:03;102110;;;21.1;68.0
6952;BME280;3515;50.138;8.502;2022-07-22T07:18:28;102110;;;21.1;68.0
6952;BME280;3515;50.138;8.502;2022-07-22T07:20:53;102110;;;21.2;68.0
6952;BME280;3515;50.138;8.502;2022-07-22T07:23:18;102100;;;21.1;68.0
6952;BME280;3515;50.138;8.502;2022-07-22T07:25:44;102120;;;21.1;68.0
6952;BME280;3515;50.138;8.502;2022-07-22T07:28:09;102130;;;21.1;68.0
6952;BME280;3515;50.138;8.502;2022-07-22T07:30:34;102100;;;21.0;68.0
6952;BME280;3515;50.138;8.502;2022-07-22T07:32:59;102100;;;21.1;67.5
6952;BME280;3515;50.138;8.502;2022-07-22T07:35:25;102090;;;21.1;68.0
6952;BME280;3515;50.138;8.502;2022-07-22T07:37:50;102070;;;21.4;67.5
6952;BME280;3515;50.138;8.502;2022-07-22T07:40:15;102080;;;21.4;67.0
6952;BME280;3515;50.138;8.502;2022-07-22T07:42:40;102070;;;21.0;68.0
6952;BME280;3515;50.138;8.502;2022-07-22T07:45:06;102090;;;21.0;68.5
6952;BME280;3515;50.138;8.502;2022-07-22T07:47:31;102090;;;20.9;68.0
6952;BME280;3515;50.138;8.502;2022-07-22T07:49:56;102060;;;21.0;68.0
6952;BME280;3515;50.138;8.502;2022-07-22T07:52:21;102090;;;21.1;67.5
6952;BME280;3515;50.138;8.502;2022-07-22T07:54:47;102090;;;21.2;67.5
6952;BME280;3515;50.138;8.502;2022-07-22T07:57:12;102090;;;21.5;67.0
6952;BME280;3515;50.138;8.502;2022-07-22T07:59:37;102090;;;21.2;67.5
6952;BME280;3515;50.138;8.502;2022-07-22T08:02:03;102100;;;21.4;67.5
6952;BME280;3515;50.138;8.502;2022-07-22T08:04:28;102080;;;21.5;67.0
6952;BME280;3515;50.138;8.502;2022-07-22T08:06:53;102090;;;21.4;67.0
6952;BME280;3515;50.138;8.502;2022-07-22T08:09:18;102070;;;21.1;68.0
6952;BME280;3515;50.138;8.502;2022-07-22T08:11:43;102070;;;21.1;68.0
6952;BME280;3515;50.138;8.502;2022-07-22T08:14:09;102070;;;20.9;68.5
6952;BME280;3515;50.138;8.502;2022-07-22T08:16:34;102060;;;20.9;68.0
6952;BME280;3515;50.138;8.502;2022-07-22T08:18:59;102070;;;21.2;67.5
6952;BME280;3515;50.138;8.502;2022-07-22T08:21:25;102060;;;21.4;66.5
6952;BME280;3515;50.138;8.502;2022-07-22T08:23:50;102070;;;21.2;68.0
6952;BME280;3515;50.138;8.502;2022-07-22T08:26:15;102080;;;21.5;66.0
6952;BME280;3515;50.138;8.502;2022-07-22T08:28:40;102060;;;21.5;66.0
6952;BME280;3515;50.138;8.502;2022-07-22T08:31:06;102060;;;21.7;65.0
6952;BME280;3515;50.138;8.502;2022-07-22T08:33:31;102060;;;21.9;64.4
6952;BME280;3515;50.138;8.502;2022-07-22T08:35:56;102060;;;22.2;64.0
6952;BME280;3515;50.138;8.502;2022-07-22T08:38:21;102100;;;22.4;63.5
6952;BME280;3515;50.138;8.502;2022-07-22T08:40:47;102070;;;22.6;62.9
6952;BME280;3515;50.138;8.502;2022-07-22T08:43:12;102060;;;22.2;63.5
6952;BME280;3515;50.138;8.502;2022-07-22T08:45:38;102040;;;22.2;63.5
6952;BME280;3515;50.138;8.502;2022-07-22T08:48:03;102050;;;22.1;63.5
6952;BME280;3515;50.138;8.502;2022-07-22T08:50:28;102040;;;22.2;63.5
6952;BME280;3515;50.138;8.502;2022-07-22T08:52:53;102050;;;22.0;64.5
6952;BME280;3515;50.138;8.502;2022-07-22T08:55:24;102040;;;22.1;64.0
6952;BME280;3515;50.138;8.502;2022-07-22T08:57:49;102040;;;22.1;64.0
6952;BME280;3515;50.138;8.502;2022-07-22T09:00:15;102060;;;22.3;63.5
6952;BME280;3515;50.138;8.502;2022-07-22T09:02:40;102040;;;22.6;63.5
6952;BME280;3515;50.138;8.502;2022-07-22T09:05:05;102040;;;22.6;62.4
6952;BME280;3515;50.138;8.502;2022-07-22T09:07:30;102050;;;22.6;63.0
6952;BME280;3515;50.138;8.502;2022-07-22T09:09:55;102050;;;22.6;63.0
6952;BME280;3515;50.138;8.502;2022-07-22T09:12:20;102060;;;22.5;63.0
6952;BME280;3515;50.138;8.502;2022-07-22T09:14:46;102040;;;22.5;63.0
6952;BME280;3515;50.138;8.502;2022-07-22T09:17:22;102060;;;22.6;63.0
6952;BME280;3515;50.138;8.502;2022-07-22T09:19:36;102060;;;22.8;62.5
6952;BME280;3515;50.138;8.502;2022-07-22T09:22:01;102050;;;22.8;62.0
6952;BME280;3515;50.138;8.502;2022-07-22T09:24:28;102050;;;22.8;62.0
6952;BME280;3515;50.138;8.502;2022-07-22T09:26:53;102040;;;22.9;62.0
6952;BME280;3515;50.138;8.502;2022-07-22T09:29:17;102040;;;23.1;61.5
6952;BME280;3515;50.138;8.502;2022-07-22T09:31:43;102030;;;23.1;61.5
6952;BME280;3515;50.138;8.502;2022-07-22T09:34:08;102040;;;23.2;61.0
6952;BME280;3515;50.138;8.502;2022-07-22T09:36:33;102070;;;23.4;60.4
6952;BME280;3515;50.138;8.502;2022-07-22T09:38:58;102050;;;23.4;61.0
6952;BME280;3515;50.138;8.502;2022-07-22T09:41:23;102040;;;23.5;60.0
6952;BME280;3515;50.138;8.502;2022-07-22T09:43:49;102020;;;23.5;60.0
6952;BME280;3515;50.138;8.502;2022-07-22T09:46:14;102040;;;23.4;59.9
6952;BME280;3515;50.138;8.502;2022-07-22T09:48:39;102020;;;23.2;60.5
6952;BME280;3515;50.138;8.502;2022-07-22T09:51:05;102020;;;23.1;60.0
6952;BME280;3515;50.138;8.502;2022-07-22T09:53:31;102030;;;23.4;60.0
6952;BME280;3515;50.138;8.502;2022-07-22T09:55:55;102020;;;23.6;59.4
6952;BME280;3515;50.138;8.502;2022-07-22T09:58:20;102020;;;23.8;59.4
6952;BME280;3515;50.138;8.502;2022-07-22T10:00:46;102000;;;23.6;58.9
6952;BME280;3515;50.138;8.502;2022-07-22T10:03:11;102000;;;23.8;59.0
6952;BME280;3515;50.138;8.502;2022-07-22T10:05:37;102010;;;23.9;58.9
6952;BME280;3515;50.138;8.502;2022-07-22T10:08:02;102000;;;23.9;59.4
6952;BME280;3515;50.138;8.502;2022-07-22T10:10:27;102000;;;23.8;59.4
6952;BME280;3515;50.138;8.502;2022-07-22T10:12:53;102000;;;23.9;59.4
6952;BME280;3515;50.138;8.502;2022-07-22T10:15:17;101990;;;24.1;58.9
6952;BME280;3515;50.138;8.502;2022-07-22T10:17:43;102000;;;23.9;59.0
6952;BME280;3515;50.138;8.502;2022-07-22T10:20:08;102000;;;24.0;59.5
6952;BME280;3515;50.138;8.502;2022-07-22T10:24:59;102000;;;24.4;58.0
6952;BME280;3515;50.138;8.502;2022-07-22T10:29:49;102000;;;24.2;57.5
6952;BME280;3515;50.138;8.502;2022-07-22T10:32:23;101990;;;24.2;57.5
6952;BME280;3515;50.138;8.502;2022-07-22T10:34:39;101970;;;24.1;57.5
6952;BME280;3515;50.138;8.502;2022-07-22T10:39:30;101980;;;24.5;56.5
6952;BME280;3515;50.138;8.502;2022-07-22T10:41:55;101970;;;24.6;56.0
6952;BME280;3515;50.138;8.502;2022-07-22T10:46:47;101980;;;24.8;55.5
6952;BME280;3515;50.138;8.502;2022-07-22T10:49:11;101990;;;24.9;55.5
6952;BME280;3515;50.138;8.502;2022-07-22T10:51:36;101980;;;25.0;55.5
6952;BME280;3515;50.138;8.502;2022-07-22T10:54:01;101970;;;25.1;55.0
6952;BME280;3515;50.138;8.502;2022-07-22T10:56:27;101970;;;25.0;54.5
6952;BME280;3515;50.138;8.502;2022-07-22T10:58:53;101980;;;25.0;54.5
6952;BME280;3515;50.138;8.502;2022-07-22T11:01:18;101960;;;24.9;54.5
6952;BME280;3515;50.138;8.502;2022-07-22T11:03:43;101950;;;25.1;54.0
6952;BME280;3515;50.138;8.502;2022-07-22T11:06:13;101950;;;25.6;53.4
6952;BME280;3515;50.138;8.502;2022-07-22T11:08:33;101940;;;25.5;53.4
6952;BME280;3515;50.138;8.502;2022-07-22T11:10:58;101950;;;25.6;52.9
6952;BME280;3515;50.138;8.502;2022-07-22T11:13:31;101980;;;25.5;54.0
6952;BME280;3515;50.138;8.502;2022-07-22T11:15:49;101930;;;25.4;53.0
6952;BME280;3515;50.138;8.502;2022-07-22T11:18:14;101930;;;25.6;52.4
6952;BME280;3515;50.138;8.502;2022-07-22T11:20:39;101950;;;25.9;52.4
6952;BME280;3515;50.138;8.502;2022-07-22T11:23:04;101950;;;26.2;51.4
6952;BME280;3515;50.138;8.502;2022-07-22T11:25:30;101940;;;26.0;51.4
6952;BME280;3515;50.138;8.502;2022-07-22T11:27:55;101920;;;25.6;53.0
6952;BME280;3515;50.138;8.502;2022-07-22T11:30:20;101930;;;25.6;52.4
6952;BME280;3515;50.138;8.502;2022-07-22T11:32:46;101910;;;26.2;50.8
6952;BME280;3515;50.138;8.502;2022-07-22T11:35:11;101900;;;26.1;51.4
6952;BME280;3515;50.138;8.502;2022-07-22T11:37:36;101910;;;26.4;50.4
6952;BME280;3515;50.138;8.502;2022-07-22T11:40:03;101900;;;26.6;49.8
6952;BME280;3515;50.138;8.502;2022-07-22T11:42:27;101920;;;26.4;50.4
6952;BME280;3515;50.138;8.502;2022-07-22T11:44:52;101910;;;25.9;50.4
6952;BME280;3515;50.138;8.502;2022-07-22T11:47:17;101900;;;26.0;49.9
6952;BME280;3515;50.138;8.502;2022-07-22T11:49:45;101900;;;26.1;49.4
6952;BME280;3515;50.138;8.502;2022-07-22T11:52:09;101920;;;26.4;49.4
6952;BME280;3515;50.138;8.502;2022-07-22T11:54:33;101890;;;26.5;49.9
6952;BME280;3515;50.138;8.502;2022-07-22T11:56:58;101900;;;26.4;49.4
6952;BME280;3515;50.138;8.502;2022-07-22T11:59:24;101900;;;26.5;49.4
6952;BME280;3515;50.138;8.502;2022-07-22T12:01:49;101890;;;26.5;48.9
6952;BME280;3515;50.138;8.502;2022-07-22T12:04:15;101890;;;26.4;48.9
6952;BME280;3515;50.138;8.502;2022-07-22T12:06:41;101890;;;26.5;49.0
6952;BME280;3515;50.138;8.502;2022-07-22T12:09:05;101890;;;26.5;49.0
6952;BME280;3515;50.138;8.502;2022-07-22T12:11:30;101900;;;26.6;49.0
6952;BME280;3515;50.138;8.502;2022-07-22T12:13:55;101890;;;26.9;47.6
6952;BME280;3515;50.138;8.502;2022-07-22T12:16:22;101860;;;27.0;47.5
6952;BME280;3515;50.138;8.502;2022-07-22T12:18:50;101870;;;27.0;47.5
6952;BME280;3515;50.138;8.502;2022-07-22T12:21:11;101880;;;27.2;47.5
6952;BME280;3515;50.138;8.502;2022-07-22T12:23:36;101870;;;27.2;48.0
6952;BME280;3515;50.138;8.502;2022-07-22T12:26:02;101850;;;26.9;49.0
6952;BME280;3515;50.138;8.502;2022-07-22T12:28:27;101880;;;27.3;47.0
6952;BME280;3515;50.138;8.502;2022-07-22T12:30:52;101870;;;27.3;48.0
6952;BME280;3515;50.138;8.502;2022-07-22T12:33:18;101870;;;27.5;47.0
6952;BME280;3515;50.138;8.502;2022-07-22T12:35:42;101860;;;27.4;47.0
6952;BME280;3515;50.138;8.502;2022-07-22T12:38:08;101850;;;27.2;47.0
6952;BME280;3515;50.138;8.502;2022-07-22T12:40:33;101860;;;27.4;46.5
6952;BME280;3515;50.138;8.502;2022-07-22T12:43:00;101870;;;27.5;46.0
6952;BME280;3515;50.138;8.502;2022-07-22T12:45:23;101840;;;27.6;46.5
6952;BME280;3515;50.138;8.502;2022-07-22T12:47:55;101860;;;27.6;46.5
6952;BME280;3515;50.138;8.502;2022-07-22T12:50:21;101850;;;27.7;46.0
6952;BME280;3515;50.138;8.502;2022-07-22T12:52:44;101840;;;28.1;45.0
6952;BME280;3515;50.138;8.502;2022-07-22T12:55:09;101850;;;28.1;45.4
6952;BME280;3515;50.138;8.502;2022-07-22T12:57:34;101850;;;28.1;45.4
6952;BME280;3515;50.138;8.502;2022-07-22T13:00:00;101830;;;28.0;45.0
6952;BME280;3515;50.138;8.502;2022-07-22T13:02:25;101840;;;28.1;45.0
6952;BME280;3515;50.138;8.502;2022-07-22T13:04:50;101850;;;28.1;45.0
6952;BME280;3515;50.138;8.502;2022-07-22T13:07:15;101830;;;28.4;45.0
6952;BME280;3515;50.138;8.502;2022-07-22T13:09:41;101830;;;28.6;44.0
6952;BME280;3515;50.138;8.502;2022-07-22T13:12:06;101820;;;28.9;43.9
6952;BME280;3515;50.138;8.502;2022-07-22T13:14:31;101820;;;28.9;44.0
6952;BME280;3515;50.138;8.502;2022-07-22T13:16:56;101810;;;28.8;44.0
6952;BME280;3515;50.138;8.502;2022-07-22T13:19:22;101810;;;28.9;43.4
6952;BME280;3515;50.138;8.502;2022-07-22T13:21:47;101800;;;28.9;43.4
6952;BME280;3515;50.138;8.502;2022-07-22T13:24:12;101820;;;29.1;43.4
6952;BME280;3515;50.138;8.502;2022-07-22T13:26:38;101800;;;29.1;43.5
6952;BME280;3515;50.138;8.502;2022-07-22T13:29:03;101810;;;29.0;42.9
6952;BME280;3515;50.138;8.502;2022-07-22T13:31:28;101820;;;28.8;44.0
6952;BME280;3515;50.138;8.502;2022-07-22T13:33:53;101790;;;28.9;43.4
6952;BME280;3515;50.138;8.502;2022-07-22T13:36:19;101820;;;28.9;43.0
6952;BME280;3515;50.138;8.502;2022-07-22T13:38:44;101830;;;28.6;43.5
6952;BME280;3515;50.138;8.502;2022-07-22T13:41:09;101790;;;28.8;43.0
6952;BME280;3515;50.138;8.502;2022-07-22T13:43:35;101790;;;29.1;43.0
6952;BME280;3515;50.138;8.502;2022-07-22T13:46:00;101800;;;29.1;43.0
6952;BME280;3515;50.138;8.502;2022-07-22T13:48:25;101780;;;28.9;42.5
6952;BME280;3515;50.138;8.502;2022-07-22T13:50:50;101780;;;29.0;43.5
6952;BME280;3515;50.138;8.502;2022-07-22T13:53:16;101780;;;29.5;41.5
6952;BME280;3515;50.138;8.502;2022-07-22T13:55:41;101760;;;29.6;41.5
6952;BME280;3515;50.138;8.502;2022-07-22T13:58:06;101790;;;29.5;42.0
6952;BME280;3515;50.138;8.502;2022-07-22T14:00:32;101780;;;29.4;42.0
6952;BME280;3515;50.138;8.502;2022-07-22T14:02:57;101770;;;29.5;42.0
6952;BME280;3515;50.138;8.502;2022-07-22T14:05:22;101780;;;29.4;41.5
6952;BME280;3515;50.138;8.502;2022-07-22T14:07:47;101780;;;29.6;41.0